sensor_id;sensor_type;location;lat;lon;timestamp;P1;durP1;ratioP1;P2;durP2;ratioP2
26407;SDS011;14583;43.604;1.364;2023-11-21T00:01:56;20.85;;;4.65;;
26407;SDS011;14583;43.604;1.364;2023-11-21T00:04:23;21.05;;;4.68;;
26407;SDS011;14583;43.604;1.364;2023-11-21T00:06:49;22.98;;;4.88;;
26407;SDS011;14583;43.604;1.364;2023-11-21T00:09:15;20.92;;;4.60;;
26407;SDS011;14583;43.604;1.364;2023-11-21T00:11:42;21.35;;;4.00;;
26407;SDS011;14583;43.604;1.364;2023-11-21T00:14:09;15.98;;;4.05;;
26407;SDS011;14583;43.604;1.364;2023-11-21T00:16:36;25.75;;;4.07;;
26407;SDS011;14583;43.604;1.364;2023-11-21T00:19:01;14.23;;;3.85;;
26407;SDS011;14583;43.604;1.364;2023-11-21T00:21:27;22.23;;;4.18;;
26407;SDS011;14583;43.604;1.364;2023-11-21T00:23:53;21.73;;;3.83;;
26407;SDS011;14583;43.604;1.364;2023-11-21T00:26:19;16.02;;;3.83;;
26407;SDS011;14583;43.604;1.364;2023-11-21T00:28:45;16.80;;;3.80;;
26407;SDS011;14583;43.604;1.364;2023-11-21T00:31:10;22.00;;;4.05;;
26407;SDS011;14583;43.604;1.364;2023-11-21T00:33:36;15.68;;;4.13;;
26407;SDS011;14583;43.604;1.364;2023-11-21T00:36:02;22.63;;;4.07;;
26407;SDS011;14583;43.604;1.364;2023-11-21T00:38:28;21.88;;;4.13;;
26407;SDS011;14583;43.604;1.364;2023-11-21T00:40:54;19.33;;;3.70;;
26407;SDS011;14583;43.604;1.364;2023-11-21T00:43:22;20.77;;;4.10;;
26407;SDS011;14583;43.604;1.364;2023-11-21T00:45:48;15.52;;;3.30;;
26407;SDS011;14583;43.604;1.364;2023-11-21T00:48:16;18.85;;;3.42;;
26407;SDS011;14583;43.604;1.364;2023-11-21T00:50:43;18.65;;;3.00;;
26407;SDS011;14583;43.604;1.364;2023-11-21T00:53:09;18.08;;;3.30;;
26407;SDS011;14583;43.604;1.364;2023-11-21T00:55:36;17.23;;;3.20;;
26407;SDS011;14583;43.604;1.364;2023-11-21T00:58:02;21.77;;;4.10;;
26407;SDS011;14583;43.604;1.364;2023-11-21T01:00:29;25.00;;;4.22;;
26407;SDS011;14583;43.604;1.364;2023-11-21T01:02:55;24.80;;;4.35;;
26407;SDS011;14583;43.604;1.364;2023-11-21T01:05:21;22.90;;;3.70;;
26407;SDS011;14583;43.604;1.364;2023-11-21T01:07:46;21.48;;;3.70;;
26407;SDS011;14583;43.604;1.364;2023-11-21T01:10:12;17.60;;;2.92;;
26407;SDS011;14583;43.604;1.364;2023-11-21T01:12:39;22.42;;;3.33;;
26407;SDS011;14583;43.604;1.364;2023-11-21T01:15:05;18.17;;;3.08;;
26407;SDS011;14583;43.604;1.364;2023-11-21T01:17:34;17.40;;;3.67;;
26407;SDS011;14583;43.604;1.364;2023-11-21T01:20:00;30.52;;;3.45;;
26407;SDS011;14583;43.604;1.364;2023-11-21T01:22:26;19.30;;;2.95;;
26407;SDS011;14583;43.604;1.364;2023-11-21T01:24:53;15.00;;;2.80;;
26407;SDS011;14583;43.604;1.364;2023-11-21T01:27:19;18.42;;;3.40;;
26407;SDS011;14583;43.604;1.364;2023-11-21T01:29:45;14.40;;;2.38;;
26407;SDS011;14583;43.604;1.364;2023-11-21T01:32:10;19.48;;;2.97;;
26407;SDS011;14583;43.604;1.364;2023-11-21T01:34:36;14.65;;;2.90;;
26407;SDS011;14583;43.604;1.364;2023-11-21T01:37:02;16.08;;;3.10;;
26407;SDS011;14583;43.604;1.364;2023-11-21T01:39:30;16.58;;;2.80;;
26407;SDS011;14583;43.604;1.364;2023-11-21T01:41:56;15.00;;;2.90;;
26407;SDS011;14583;43.604;1.364;2023-11-21T01:44:26;15.68;;;2.60;;
26407;SDS011;14583;43.604;1.364;2023-11-21T01:46:51;16.58;;;2.80;;
26407;SDS011;14583;43.604;1.364;2023-11-21T01:49:18;11.75;;;2.30;;
26407;SDS011;14583;43.604;1.364;2023-11-21T01:51:46;17.45;;;3.05;;
26407;SDS011;14583;43.604;1.364;2023-11-21T01:54:14;18.40;;;3.22;;
26407;SDS011;14583;43.604;1.364;2023-11-21T01:56:43;14.25;;;2.88;;
26407;SDS011;14583;43.604;1.364;2023-11-21T01:59:19;20.45;;;3.05;;
26407;SDS011;14583;43.604;1.364;2023-11-21T02:01:49;11.65;;;2.58;;
26407;SDS011;14583;43.604;1.364;2023-11-21T02:04:15;20.85;;;3.47;;
26407;SDS011;14583;43.604;1.364;2023-11-21T02:06:41;20.90;;;3.22;;
26407;SDS011;14583;43.604;1.364;2023-11-21T02:09:07;16.30;;;2.80;;
26407;SDS011;14583;43.604;1.364;2023-11-21T02:11:34;14.43;;;2.47;;
26407;SDS011;14583;43.604;1.364;2023-11-21T02:14:00;12.30;;;2.78;;
26407;SDS011;14583;43.604;1.364;2023-11-21T02:16:26;25.13;;;3.20;;
26407;SDS011;14583;43.604;1.364;2023-11-21T02:18:52;11.55;;;2.63;;
26407;SDS011;14583;43.604;1.364;2023-11-21T02:21:18;13.80;;;3.00;;
26407;SDS011;14583;43.604;1.364;2023-11-21T02:23:46;15.30;;;2.72;;
26407;SDS011;14583;43.604;1.364;2023-11-21T02:26:12;12.65;;;2.33;;
26407;SDS011;14583;43.604;1.364;2023-11-21T02:28:39;9.68;;;2.30;;
26407;SDS011;14583;43.604;1.364;2023-11-21T02:31:05;12.10;;;2.40;;
26407;SDS011;14583;43.604;1.364;2023-11-21T02:33:32;11.68;;;2.10;;
26407;SDS011;14583;43.604;1.364;2023-11-21T02:36:02;9.82;;;2.40;;
26407;SDS011;14583;43.604;1.364;2023-11-21T02:38:28;10.40;;;1.92;;
26407;SDS011;14583;43.604;1.364;2023-11-21T02:40:53;12.23;;;2.15;;
26407;SDS011;14583;43.604;1.364;2023-11-21T02:43:19;13.73;;;2.50;;
26407;SDS011;14583;43.604;1.364;2023-11-21T02:45:45;13.52;;;2.42;;
26407;SDS011;14583;43.604;1.364;2023-11-21T02:48:11;8.43;;;1.92;;
26407;SDS011;14583;43.604;1.364;2023-11-21T02:50:36;10.40;;;2.15;;
26407;SDS011;14583;43.604;1.364;2023-11-21T02:53:03;13.52;;;2.33;;
26407;SDS011;14583;43.604;1.364;2023-11-21T02:55:30;11.18;;;2.38;;
26407;SDS011;14583;43.604;1.364;2023-11-21T02:58:01;15.40;;;2.85;;
26407;SDS011;14583;43.604;1.364;2023-11-21T03:00:30;13.70;;;2.35;;
26407;SDS011;14583;43.604;1.364;2023-11-21T03:02:55;13.00;;;2.80;;
26407;SDS011;14583;43.604;1.364;2023-11-21T03:05:21;13.93;;;2.83;;
26407;SDS011;14583;43.604;1.364;2023-11-21T03:07:47;8.65;;;1.60;;
26407;SDS011;14583;43.604;1.364;2023-11-21T03:10:12;14.65;;;2.63;;
26407;SDS011;14583;43.604;1.364;2023-11-21T03:12:39;11.10;;;2.42;;
26407;SDS011;14583;43.604;1.364;2023-11-21T03:15:05;13.45;;;2.65;;
26407;SDS011;14583;43.604;1.364;2023-11-21T03:17:32;11.05;;;2.28;;
26407;SDS011;14583;43.604;1.364;2023-11-21T03:19:59;7.60;;;2.17;;
26407;SDS011;14583;43.604;1.364;2023-11-21T03:22:25;12.98;;;2.75;;
26407;SDS011;14583;43.604;1.364;2023-11-21T03:24:51;11.85;;;2.13;;
26407;SDS011;14583;43.604;1.364;2023-11-21T03:27:17;14.85;;;2.15;;
26407;SDS011;14583;43.604;1.364;2023-11-21T03:29:43;15.02;;;2.78;;
26407;SDS011;14583;43.604;1.364;2023-11-21T03:32:11;11.18;;;2.65;;
26407;SDS011;14583;43.604;1.364;2023-11-21T03:34:41;13.60;;;2.00;;
26407;SDS011;14583;43.604;1.364;2023-11-21T03:37:20;9.27;;;1.88;;
26407;SDS011;14583;43.604;1.364;2023-11-21T03:39:46;10.65;;;2.20;;
26407;SDS011;14583;43.604;1.364;2023-11-21T03:42:12;13.63;;;1.92;;
26407;SDS011;14583;43.604;1.364;2023-11-21T03:44:37;16.10;;;2.20;;
26407;SDS011;14583;43.604;1.364;2023-11-21T03:47:03;15.52;;;2.88;;
26407;SDS011;14583;43.604;1.364;2023-11-21T03:49:29;12.52;;;2.03;;
26407;SDS011;14583;43.604;1.364;2023-11-21T03:51:55;16.67;;;2.13;;
26407;SDS011;14583;43.604;1.364;2023-11-21T03:54:21;11.00;;;2.15;;
26407;SDS011;14583;43.604;1.364;2023-11-21T03:56:46;17.08;;;3.10;;
26407;SDS011;14583;43.604;1.364;2023-11-21T03:59:12;8.90;;;2.10;;
26407;SDS011;14583;43.604;1.364;2023-11-21T04:01:38;13.95;;;2.75;;
26407;SDS011;14583;43.604;1.364;2023-11-21T04:04:04;13.43;;;2.17;;
26407;SDS011;14583;43.604;1.364;2023-11-21T04:06:30;18.15;;;2.78;;
26407;SDS011;14583;43.604;1.364;2023-11-21T04:08:57;12.73;;;2.38;;
26407;SDS011;14583;43.604;1.364;2023-11-21T04:11:23;11.98;;;2.95;;
26407;SDS011;14583;43.604;1.364;2023-11-21T04:13:49;15.23;;;2.63;;
26407;SDS011;14583;43.604;1.364;2023-11-21T04:16:15;12.40;;;2.53;;
26407;SDS011;14583;43.604;1.364;2023-11-21T04:18:41;14.00;;;2.67;;
26407;SDS011;14583;43.604;1.364;2023-11-21T04:21:06;11.50;;;2.60;;
26407;SDS011;14583;43.604;1.364;2023-11-21T04:23:33;12.55;;;2.50;;
26407;SDS011;14583;43.604;1.364;2023-11-21T04:25:59;16.45;;;3.22;;
26407;SDS011;14583;43.604;1.364;2023-11-21T04:28:25;20.70;;;2.55;;
26407;SDS011;14583;43.604;1.364;2023-11-21T04:30:51;20.20;;;3.30;;
26407;SDS011;14583;43.604;1.364;2023-11-21T04:33:16;20.67;;;3.28;;
26407;SDS011;14583;43.604;1.364;2023-11-21T04:35:42;16.90;;;2.67;;
26407;SDS011;14583;43.604;1.364;2023-11-21T04:38:08;14.85;;;2.47;;
26407;SDS011;14583;43.604;1.364;2023-11-21T04:40:33;17.23;;;3.15;;
26407;SDS011;14583;43.604;1.364;2023-11-21T04:42:59;18.15;;;2.25;;
26407;SDS011;14583;43.604;1.364;2023-11-21T04:45:26;13.30;;;2.20;;
26407;SDS011;14583;43.604;1.364;2023-11-21T04:47:52;15.35;;;2.35;;
26407;SDS011;14583;43.604;1.364;2023-11-21T04:50:17;11.27;;;2.15;;
26407;SDS011;14583;43.604;1.364;2023-11-21T04:52:44;15.88;;;2.53;;
26407;SDS011;14583;43.604;1.364;2023-11-21T04:55:10;13.07;;;2.20;;
26407;SDS011;14583;43.604;1.364;2023-11-21T04:57:38;11.88;;;2.10;;
26407;SDS011;14583;43.604;1.364;2023-11-21T05:00:09;13.90;;;2.42;;
26407;SDS011;14583;43.604;1.364;2023-11-21T05:02:35;9.85;;;2.45;;
26407;SDS011;14583;43.604;1.364;2023-11-21T05:05:01;11.52;;;2.17;;
26407;SDS011;14583;43.604;1.364;2023-11-21T05:07:30;17.75;;;2.47;;
26407;SDS011;14583;43.604;1.364;2023-11-21T05:09:57;9.40;;;2.20;;
26407;SDS011;14583;43.604;1.364;2023-11-21T05:12:24;14.57;;;2.25;;
26407;SDS011;14583;43.604;1.364;2023-11-21T05:14:50;16.35;;;2.60;;
26407;SDS011;14583;43.604;1.364;2023-11-21T05:17:16;9.57;;;2.00;;
26407;SDS011;14583;43.604;1.364;2023-11-21T05:19:42;12.82;;;2.53;;
26407;SDS011;14583;43.604;1.364;2023-11-21T05:22:10;13.77;;;2.58;;
26407;SDS011;14583;43.604;1.364;2023-11-21T05:24:37;10.63;;;1.95;;
26407;SDS011;14583;43.604;1.364;2023-11-21T05:27:04;13.85;;;2.20;;
26407;SDS011;14583;43.604;1.364;2023-11-21T05:29:30;22.70;;;9.38;;
26407;SDS011;14583;43.604;1.364;2023-11-21T05:31:56;11.23;;;2.53;;
26407;SDS011;14583;43.604;1.364;2023-11-21T05:34:21;12.93;;;2.15;;
26407;SDS011;14583;43.604;1.364;2023-11-21T05:36:49;16.60;;;2.38;;
26407;SDS011;14583;43.604;1.364;2023-11-21T05:39:15;11.57;;;1.95;;
26407;SDS011;14583;43.604;1.364;2023-11-21T05:41:42;14.43;;;2.78;;
26407;SDS011;14583;43.604;1.364;2023-11-21T05:44:08;10.43;;;2.72;;
26407;SDS011;14583;43.604;1.364;2023-11-21T05:46:46;9.75;;;2.05;;
26407;SDS011;14583;43.604;1.364;2023-11-21T05:49:12;9.57;;;1.77;;
26407;SDS011;14583;43.604;1.364;2023-11-21T05:51:38;10.48;;;2.00;;
26407;SDS011;14583;43.604;1.364;2023-11-21T05:54:04;12.30;;;1.92;;
26407;SDS011;14583;43.604;1.364;2023-11-21T05:56:30;12.55;;;2.42;;
26407;SDS011;14583;43.604;1.364;2023-11-21T05:58:55;8.73;;;2.03;;
26407;SDS011;14583;43.604;1.364;2023-11-21T06:01:21;10.65;;;2.20;;
26407;SDS011;14583;43.604;1.364;2023-11-21T06:03:47;10.98;;;2.42;;
26407;SDS011;14583;43.604;1.364;2023-11-21T06:06:13;12.63;;;2.42;;
26407;SDS011;14583;43.604;1.364;2023-11-21T06:08:39;12.25;;;2.20;;
26407;SDS011;14583;43.604;1.364;2023-11-21T06:11:04;11.70;;;2.28;;
26407;SDS011;14583;43.604;1.364;2023-11-21T06:13:30;10.25;;;2.08;;
26407;SDS011;14583;43.604;1.364;2023-11-21T06:15:56;13.88;;;2.63;;
26407;SDS011;14583;43.604;1.364;2023-11-21T06:18:21;12.60;;;2.20;;
26407;SDS011;14583;43.604;1.364;2023-11-21T06:20:47;11.80;;;2.25;;
26407;SDS011;14583;43.604;1.364;2023-11-21T06:23:13;12.48;;;1.92;;
26407;SDS011;14583;43.604;1.364;2023-11-21T06:25:39;18.05;;;2.90;;
26407;SDS011;14583;43.604;1.364;2023-11-21T06:28:05;11.77;;;2.30;;
26407;SDS011;14583;43.604;1.364;2023-11-21T06:30:31;13.40;;;2.30;;
26407;SDS011;14583;43.604;1.364;2023-11-21T06:32:57;13.27;;;2.33;;
26407;SDS011;14583;43.604;1.364;2023-11-21T06:35:22;6.40;;;1.70;;
26407;SDS011;14583;43.604;1.364;2023-11-21T06:37:48;8.52;;;1.90;;
26407;SDS011;14583;43.604;1.364;2023-11-21T06:40:14;7.18;;;1.60;;
26407;SDS011;14583;43.604;1.364;2023-11-21T06:42:40;9.40;;;2.05;;
26407;SDS011;14583;43.604;1.364;2023-11-21T06:45:06;15.57;;;2.05;;
26407;SDS011;14583;43.604;1.364;2023-11-21T06:47:33;8.93;;;2.00;;
26407;SDS011;14583;43.604;1.364;2023-11-21T06:49:59;10.10;;;1.80;;
26407;SDS011;14583;43.604;1.364;2023-11-21T06:52:25;11.43;;;2.38;;
26407;SDS011;14583;43.604;1.364;2023-11-21T06:54:51;7.75;;;1.95;;
26407;SDS011;14583;43.604;1.364;2023-11-21T06:57:17;13.75;;;2.28;;
26407;SDS011;14583;43.604;1.364;2023-11-21T06:59:42;6.22;;;1.80;;
26407;SDS011;14583;43.604;1.364;2023-11-21T07:02:08;14.95;;;2.63;;
26407;SDS011;14583;43.604;1.364;2023-11-21T07:04:35;10.77;;;2.25;;
26407;SDS011;14583;43.604;1.364;2023-11-21T07:07:02;13.73;;;2.25;;
26407;SDS011;14583;43.604;1.364;2023-11-21T07:09:28;10.30;;;2.17;;
26407;SDS011;14583;43.604;1.364;2023-11-21T07:11:54;11.50;;;2.83;;
26407;SDS011;14583;43.604;1.364;2023-11-21T07:14:20;12.45;;;1.98;;
26407;SDS011;14583;43.604;1.364;2023-11-21T07:16:46;10.50;;;2.85;;
26407;SDS011;14583;43.604;1.364;2023-11-21T07:19:12;12.32;;;2.55;;
26407;SDS011;14583;43.604;1.364;2023-11-21T07:21:38;5.93;;;1.52;;
26407;SDS011;14583;43.604;1.364;2023-11-21T07:24:05;8.55;;;2.08;;
26407;SDS011;14583;43.604;1.364;2023-11-21T07:26:32;8.00;;;1.83;;
26407;SDS011;14583;43.604;1.364;2023-11-21T07:29:01;7.63;;;1.77;;
26407;SDS011;14583;43.604;1.364;2023-11-21T07:31:28;7.30;;;2.20;;
26407;SDS011;14583;43.604;1.364;2023-11-21T07:33:54;13.32;;;1.90;;
26407;SDS011;14583;43.604;1.364;2023-11-21T07:36:22;7.47;;;1.80;;
26407;SDS011;14583;43.604;1.364;2023-11-21T07:38:48;8.77;;;1.83;;
26407;SDS011;14583;43.604;1.364;2023-11-21T07:41:15;10.73;;;1.92;;
26407;SDS011;14583;43.604;1.364;2023-11-21T07:43:42;10.27;;;2.10;;
26407;SDS011;14583;43.604;1.364;2023-11-21T07:46:08;6.95;;;1.70;;
26407;SDS011;14583;43.604;1.364;2023-11-21T07:48:34;11.82;;;1.92;;
26407;SDS011;14583;43.604;1.364;2023-11-21T07:51:02;4.57;;;1.70;;
26407;SDS011;14583;43.604;1.364;2023-11-21T07:53:32;8.05;;;1.90;;
26407;SDS011;14583;43.604;1.364;2023-11-21T07:55:58;7.63;;;1.80;;
26407;SDS011;14583;43.604;1.364;2023-11-21T07:58:28;4.65;;;1.83;;
26407;SDS011;14583;43.604;1.364;2023-11-21T08:00:53;7.57;;;2.08;;
26407;SDS011;14583;43.604;1.364;2023-11-21T08:03:19;6.57;;;1.80;;
26407;SDS011;14583;43.604;1.364;2023-11-21T08:05:46;7.63;;;2.03;;
26407;SDS011;14583;43.604;1.364;2023-11-21T08:08:12;6.28;;;2.17;;
26407;SDS011;14583;43.604;1.364;2023-11-21T08:10:37;6.30;;;1.50;;
26407;SDS011;14583;43.604;1.364;2023-11-21T08:13:04;7.05;;;1.67;;
26407;SDS011;14583;43.604;1.364;2023-11-21T08:15:30;7.85;;;1.85;;
26407;SDS011;14583;43.604;1.364;2023-11-21T08:17:59;5.85;;;1.50;;
26407;SDS011;14583;43.604;1.364;2023-11-21T08:20:24;2.97;;;1.20;;
26407;SDS011;14583;43.604;1.364;2023-11-21T08:22:50;4.65;;;1.75;;
26407;SDS011;14583;43.604;1.364;2023-11-21T08:25:20;5.22;;;2.05;;
26407;SDS011;14583;43.604;1.364;2023-11-21T08:27:46;11.73;;;1.88;;
26407;SDS011;14583;43.604;1.364;2023-11-21T08:30:12;9.00;;;2.20;;
26407;SDS011;14583;43.604;1.364;2023-11-21T08:32:39;8.50;;;2.03;;
26407;SDS011;14583;43.604;1.364;2023-11-21T08:35:06;4.18;;;1.48;;
26407;SDS011;14583;43.604;1.364;2023-11-21T08:37:32;6.78;;;1.67;;
26407;SDS011;14583;43.604;1.364;2023-11-21T08:40:02;6.13;;;1.98;;
26407;SDS011;14583;43.604;1.364;2023-11-21T08:42:29;8.38;;;2.30;;
26407;SDS011;14583;43.604;1.364;2023-11-21T08:44:55;4.75;;;2.00;;
26407;SDS011;14583;43.604;1.364;2023-11-21T08:47:22;7.82;;;1.85;;
26407;SDS011;14583;43.604;1.364;2023-11-21T08:49:49;9.35;;;1.92;;
26407;SDS011;14583;43.604;1.364;2023-11-21T08:52:18;11.73;;;2.55;;
26407;SDS011;14583;43.604;1.364;2023-11-21T08:54:48;6.07;;;2.00;;
26407;SDS011;14583;43.604;1.364;2023-11-21T08:57:20;5.35;;;1.92;;
26407;SDS011;14583;43.604;1.364;2023-11-21T08:59:49;9.38;;;2.20;;
26407;SDS011;14583;43.604;1.364;2023-11-21T09:02:20;7.43;;;1.77;;
26407;SDS011;14583;43.604;1.364;2023-11-21T09:04:47;6.70;;;2.28;;
26407;SDS011;14583;43.604;1.364;2023-11-21T09:07:13;10.48;;;1.70;;
26407;SDS011;14583;43.604;1.364;2023-11-21T09:09:38;8.00;;;1.80;;
26407;SDS011;14583;43.604;1.364;2023-11-21T09:12:05;3.17;;;1.40;;
26407;SDS011;14583;43.604;1.364;2023-11-21T09:14:31;3.80;;;1.45;;
26407;SDS011;14583;43.604;1.364;2023-11-21T09:16:56;10.75;;;1.75;;
26407;SDS011;14583;43.604;1.364;2023-11-21T09:19:22;4.55;;;1.58;;
26407;SDS011;14583;43.604;1.364;2023-11-21T09:21:47;4.50;;;1.48;;
26407;SDS011;14583;43.604;1.364;2023-11-21T09:24:14;5.93;;;1.83;;
26407;SDS011;14583;43.604;1.364;2023-11-21T09:26:39;4.88;;;1.60;;
26407;SDS011;14583;43.604;1.364;2023-11-21T09:29:06;4.97;;;1.23;;
26407;SDS011;14583;43.604;1.364;2023-11-21T09:31:33;3.83;;;1.52;;
26407;SDS011;14583;43.604;1.364;2023-11-21T09:33:59;6.35;;;1.70;;
26407;SDS011;14583;43.604;1.364;2023-11-21T09:36:24;3.97;;;1.33;;
26407;SDS011;14583;43.604;1.364;2023-11-21T09:38:53;5.38;;;1.38;;
26407;SDS011;14583;43.604;1.364;2023-11-21T09:41:26;3.83;;;1.15;;
26407;SDS011;14583;43.604;1.364;2023-11-21T09:44:04;4.45;;;1.40;;
26407;SDS011;14583;43.604;1.364;2023-11-21T09:46:39;6.28;;;2.00;;
26407;SDS011;14583;43.604;1.364;2023-11-21T09:49:08;2.88;;;1.45;;
26407;SDS011;14583;43.604;1.364;2023-11-21T09:51:42;4.65;;;1.73;;
26407;SDS011;14583;43.604;1.364;2023-11-21T09:54:09;6.28;;;1.67;;
26407;SDS011;14583;43.604;1.364;2023-11-21T09:56:39;4.28;;;1.40;;
26407;SDS011;14583;43.604;1.364;2023-11-21T09:59:06;4.47;;;1.60;;
26407;SDS011;14583;43.604;1.364;2023-11-21T10:01:35;4.80;;;1.58;;
26407;SDS011;14583;43.604;1.364;2023-11-21T10:04:02;2.95;;;1.30;;
26407;SDS011;14583;43.604;1.364;2023-11-21T10:06:28;5.07;;;1.40;;
26407;SDS011;14583;43.604;1.364;2023-11-21T10:08:55;5.15;;;1.50;;
26407;SDS011;14583;43.604;1.364;2023-11-21T10:11:25;5.68;;;1.60;;
26407;SDS011;14583;43.604;1.364;2023-11-21T10:13:55;5.63;;;1.60;;
26407;SDS011;14583;43.604;1.364;2023-11-21T10:16:25;5.60;;;1.20;;
26407;SDS011;14583;43.604;1.364;2023-11-21T10:18:52;4.10;;;1.48;;
26407;SDS011;14583;43.604;1.364;2023-11-21T10:21:21;3.65;;;1.30;;
26407;SDS011;14583;43.604;1.364;2023-11-21T10:23:47;2.60;;;1.38;;
26407;SDS011;14583;43.604;1.364;2023-11-21T10:26:13;4.15;;;1.70;;
26407;SDS011;14583;43.604;1.364;2023-11-21T10:28:41;4.45;;;1.70;;
26407;SDS011;14583;43.604;1.364;2023-11-21T10:31:20;5.72;;;1.73;;
26407;SDS011;14583;43.604;1.364;2023-11-21T10:33:46;5.32;;;1.60;;
26407;SDS011;14583;43.604;1.364;2023-11-21T10:36:12;2.40;;;1.40;;
26407;SDS011;14583;43.604;1.364;2023-11-21T10:38:41;3.17;;;1.50;;
26407;SDS011;14583;43.604;1.364;2023-11-21T10:41:10;4.03;;;1.33;;
26407;SDS011;14583;43.604;1.364;2023-11-21T10:43:38;4.75;;;1.45;;
26407;SDS011;14583;43.604;1.364;2023-11-21T10:46:04;3.47;;;1.60;;
26407;SDS011;14583;43.604;1.364;2023-11-21T10:48:30;5.03;;;1.92;;
26407;SDS011;14583;43.604;1.364;2023-11-21T10:50:58;3.95;;;1.60;;
26407;SDS011;14583;43.604;1.364;2023-11-21T10:53:24;2.55;;;1.23;;
26407;SDS011;14583;43.604;1.364;2023-11-21T10:56:00;2.95;;;1.70;;
26407;SDS011;14583;43.604;1.364;2023-11-21T10:58:32;5.50;;;2.10;;
26407;SDS011;14583;43.604;1.364;2023-11-21T11:00:59;3.42;;;1.70;;
26407;SDS011;14583;43.604;1.364;2023-11-21T11:03:25;3.30;;;1.70;;
26407;SDS011;14583;43.604;1.364;2023-11-21T11:05:51;3.65;;;1.77;;
26407;SDS011;14583;43.604;1.364;2023-11-21T11:08:20;5.30;;;1.50;;
26407;SDS011;14583;43.604;1.364;2023-11-21T11:10:51;3.53;;;1.60;;
26407;SDS011;14583;43.604;1.364;2023-11-21T11:13:17;4.90;;;2.03;;
26407;SDS011;14583;43.604;1.364;2023-11-21T11:15:44;5.43;;;1.60;;
26407;SDS011;14583;43.604;1.364;2023-11-21T11:18:13;3.83;;;1.60;;
26407;SDS011;14583;43.604;1.364;2023-11-21T11:20:40;1.90;;;1.60;;
26407;SDS011;14583;43.604;1.364;2023-11-21T11:28:29;3.05;;;1.80;;
26407;SDS011;14583;43.604;1.364;2023-11-21T11:31:25;4.20;;;1.90;;
26407;SDS011;14583;43.604;1.364;2023-11-21T11:37:07;3.05;;;1.60;;
26407;SDS011;14583;43.604;1.364;2023-11-21T11:42:13;4.70;;;2.08;;
26407;SDS011;14583;43.604;1.364;2023-11-21T11:47:19;3.75;;;1.63;;
26407;SDS011;14583;43.604;1.364;2023-11-21T11:55:22;3.47;;;1.67;;
26407;SDS011;14583;43.604;1.364;2023-11-21T11:57:50;4.15;;;1.63;;
26407;SDS011;14583;43.604;1.364;2023-11-21T12:02:52;4.68;;;1.98;;
26407;SDS011;14583;43.604;1.364;2023-11-21T12:05:21;3.72;;;1.77;;
26407;SDS011;14583;43.604;1.364;2023-11-21T12:10:26;2.10;;;1.42;;
26407;SDS011;14583;43.604;1.364;2023-11-21T12:15:20;3.70;;;1.30;;
26407;SDS011;14583;43.604;1.364;2023-11-21T12:17:47;2.90;;;1.60;;
26407;SDS011;14583;43.604;1.364;2023-11-21T12:20:14;4.07;;;1.50;;
26407;SDS011;14583;43.604;1.364;2023-11-21T12:22:43;3.33;;;1.58;;
26407;SDS011;14583;43.604;1.364;2023-11-21T12:25:12;2.47;;;1.77;;
26407;SDS011;14583;43.604;1.364;2023-11-21T12:27:41;3.55;;;1.70;;
26407;SDS011;14583;43.604;1.364;2023-11-21T12:30:08;3.22;;;1.88;;
26407;SDS011;14583;43.604;1.364;2023-11-21T12:32:38;6.03;;;1.80;;
26407;SDS011;14583;43.604;1.364;2023-11-21T12:35:08;4.22;;;1.80;;
26407;SDS011;14583;43.604;1.364;2023-11-21T12:37:38;4.25;;;2.00;;
26407;SDS011;14583;43.604;1.364;2023-11-21T12:40:09;4.63;;;2.00;;
26407;SDS011;14583;43.604;1.364;2023-11-21T12:42:41;5.60;;;2.00;;
26407;SDS011;14583;43.604;1.364;2023-11-21T12:47:46;5.97;;;2.60;;
26407;SDS011;14583;43.604;1.364;2023-11-21T12:50:22;7.32;;;2.40;;
26407;SDS011;14583;43.604;1.364;2023-11-21T12:52:49;7.05;;;2.53;;
26407;SDS011;14583;43.604;1.364;2023-11-21T12:55:20;5.53;;;2.35;;
26407;SDS011;14583;43.604;1.364;2023-11-21T12:57:50;6.05;;;2.72;;
26407;SDS011;14583;43.604;1.364;2023-11-21T13:00:19;5.38;;;2.55;;
26407;SDS011;14583;43.604;1.364;2023-11-21T13:02:56;4.18;;;2.50;;
26407;SDS011;14583;43.604;1.364;2023-11-21T13:05:30;7.00;;;2.67;;
26407;SDS011;14583;43.604;1.364;2023-11-21T13:07:59;5.35;;;2.13;;
26407;SDS011;14583;43.604;1.364;2023-11-21T13:10:28;4.47;;;2.25;;
26407;SDS011;14583;43.604;1.364;2023-11-21T13:12:59;7.95;;;3.20;;
26407;SDS011;14583;43.604;1.364;2023-11-21T13:15:28;6.35;;;2.58;;
26407;SDS011;14583;43.604;1.364;2023-11-21T13:17:56;6.05;;;2.00;;
26407;SDS011;14583;43.604;1.364;2023-11-21T13:20:23;7.85;;;2.40;;
26407;SDS011;14583;43.604;1.364;2023-11-21T13:22:55;3.80;;;1.60;;
26407;SDS011;14583;43.604;1.364;2023-11-21T13:25:28;5.70;;;2.20;;
26407;SDS011;14583;43.604;1.364;2023-11-21T13:27:56;2.15;;;1.50;;
26407;SDS011;14583;43.604;1.364;2023-11-21T13:30:27;5.10;;;1.73;;
26407;SDS011;14583;43.604;1.364;2023-11-21T13:32:58;6.47;;;1.92;;
26407;SDS011;14583;43.604;1.364;2023-11-21T13:35:30;2.85;;;2.13;;
26407;SDS011;14583;43.604;1.364;2023-11-21T13:38:06;3.03;;;2.08;;
26407;SDS011;14583;43.604;1.364;2023-11-21T13:40:32;5.00;;;2.20;;
26407;SDS011;14583;43.604;1.364;2023-11-21T13:43:05;3.92;;;2.30;;
26407;SDS011;14583;43.604;1.364;2023-11-21T13:45:34;4.88;;;2.42;;
26407;SDS011;14583;43.604;1.364;2023-11-21T13:48:10;5.80;;;2.38;;
26407;SDS011;14583;43.604;1.364;2023-11-21T13:50:42;4.47;;;2.35;;
26407;SDS011;14583;43.604;1.364;2023-11-21T13:53:13;5.47;;;2.58;;
26407;SDS011;14583;43.604;1.364;2023-11-21T13:55:52;5.63;;;2.60;;
26407;SDS011;14583;43.604;1.364;2023-11-21T13:58:23;8.02;;;2.83;;
26407;SDS011;14583;43.604;1.364;2023-11-21T14:01:07;8.15;;;2.95;;
26407;SDS011;14583;43.604;1.364;2023-11-21T14:03:51;7.35;;;2.80;;
26407;SDS011;14583;43.604;1.364;2023-11-21T14:06:22;5.93;;;2.70;;
26407;SDS011;14583;43.604;1.364;2023-11-21T14:08:55;4.72;;;3.03;;
26407;SDS011;14583;43.604;1.364;2023-11-21T14:11:22;7.30;;;2.70;;
26407;SDS011;14583;43.604;1.364;2023-11-21T14:13:48;5.55;;;2.40;;
26407;SDS011;14583;43.604;1.364;2023-11-21T14:16:15;9.65;;;3.80;;
26407;SDS011;14583;43.604;1.364;2023-11-21T14:18:42;3.85;;;2.42;;
26407;SDS011;14583;43.604;1.364;2023-11-21T14:21:19;12.48;;;3.22;;
26407;SDS011;14583;43.604;1.364;2023-11-21T14:23:44;5.53;;;2.85;;
26407;SDS011;14583;43.604;1.364;2023-11-21T14:26:13;6.28;;;2.55;;
26407;SDS011;14583;43.604;1.364;2023-11-21T14:28:40;7.68;;;2.60;;
26407;SDS011;14583;43.604;1.364;2023-11-21T14:31:06;5.93;;;2.55;;
26407;SDS011;14583;43.604;1.364;2023-11-21T14:33:33;4.75;;;2.88;;
26407;SDS011;14583;43.604;1.364;2023-11-21T14:35:59;4.25;;;2.47;;
26407;SDS011;14583;43.604;1.364;2023-11-21T14:38:24;6.63;;;2.63;;
26407;SDS011;14583;43.604;1.364;2023-11-21T14:40:50;6.43;;;2.47;;
26407;SDS011;14583;43.604;1.364;2023-11-21T14:43:16;4.90;;;2.60;;
26407;SDS011;14583;43.604;1.364;2023-11-21T14:45:44;5.55;;;2.67;;
26407;SDS011;14583;43.604;1.364;2023-11-21T14:48:09;5.10;;;2.83;;
26407;SDS011;14583;43.604;1.364;2023-11-21T14:50:41;5.32;;;2.33;;
26407;SDS011;14583;43.604;1.364;2023-11-21T14:53:08;7.18;;;2.78;;
26407;SDS011;14583;43.604;1.364;2023-11-21T14:55:35;4.20;;;2.50;;
26407;SDS011;14583;43.604;1.364;2023-11-21T14:58:03;6.80;;;2.60;;
26407;SDS011;14583;43.604;1.364;2023-11-21T15:00:29;5.32;;;2.30;;
26407;SDS011;14583;43.604;1.364;2023-11-21T15:03:01;5.22;;;2.60;;
26407;SDS011;14583;43.604;1.364;2023-11-21T15:05:27;6.88;;;2.70;;
26407;SDS011;14583;43.604;1.364;2023-11-21T15:07:54;3.83;;;2.30;;
26407;SDS011;14583;43.604;1.364;2023-11-21T15:10:22;3.35;;;2.13;;
26407;SDS011;14583;43.604;1.364;2023-11-21T15:13:08;5.47;;;2.20;;